Time;durP1;ratioP1;P1;durP2;ratioP2;P2;SDS_P1;SDS_P2;PMS_P1;PMS_P2;Temp;Humidity;BMP_temperature;BMP_pressure;BME280_temperature;BME280_humidity;BME280_pressure;Samples;Min_cycle;Max_cycle;Signal;HPM_P1;HPM_P2
2023/07/10 05:46:38;;;;;;;2.03;1.05;;;;;;;19.22;78.17;102194.59;4966006;28;97785;-27
2023/07/10 05:49:04;;;;;;;4.63;0.95;;;;;;;19.25;78.09;102190.72;4997781;28;97927;-27
2023/07/10 05:51:29;;;;;;;3.58;1.02;;;;;;;19.33;77.05;102199.28;4997638;28;97794;-27
2023/07/10 05:53:56;;;;;;;3.63;1.00;;;;;;;19.45;76.76;102192.81;4995958;28;96559;-27
2023/07/10 05:56:23;;;;;;;5.03;1.30;;;;;;;19.56;76.39;102194.72;4997833;28;97021;-27
2023/07/10 05:58:50;;;;;;;3.30;1.05;;;;;;;19.67;75.87;102196.66;4995593;28;100932;-27
2023/07/10 06:01:15;;;;;;;3.65;1.02;;;;;;;19.80;76.66;102196.56;4995986;28;100841;-27
2023/07/10 06:03:41;;;;;;;5.05;1.00;;;;;;;19.79;76.25;102190.22;4997636;28;96540;-28
2023/07/10 06:06:07;;;;;;;3.17;0.90;;;;;;;19.84;75.03;102192.59;4996212;28;96922;-27
2023/07/10 06:08:34;;;;;;;4.28;0.70;;;;;;;19.94;75.25;102213.72;4995779;28;101258;-27
2023/07/10 06:11:00;;;;;;;6.88;1.20;;;;;;;19.98;74.92;102189.63;4996119;28;100938;-27
2023/07/10 06:13:26;;;;;;;2.45;0.90;;;;;;;20.09;73.95;102202.50;4995426;28;96665;-28
2023/07/10 06:15:54;;;;;;;3.53;0.98;;;;;;;20.18;73.94;102196.25;4997368;28;96774;-29
2023/07/10 06:18:20;;;;;;;4.63;1.05;;;;;;;20.30;73.61;102199.88;4994450;28;100901;-27
2023/07/10 06:20:56;;;;;;;3.95;0.98;;;;;;;20.41;73.40;102210.91;4995604;28;99144;-28
2023/07/10 06:23:23;;;;;;;4.70;0.93;;;;;;;20.40;72.46;102189.00;4997512;28;96509;-27
2023/07/10 06:25:50;;;;;;;2.20;0.82;;;;;;;20.55;72.08;102204.28;4995769;28;96888;-30
2023/07/10 06:28:16;;;;;;;4.63;1.05;;;;;;;20.66;71.98;102209.78;4995408;28;101102;-28
2023/07/10 06:30:43;;;;;;;4.80;0.90;;;;;;;20.70;71.46;102213.16;4995281;28;100878;-27
2023/07/10 06:33:09;;;;;;;5.25;0.82;;;;;;;20.79;71.65;102209.66;4995623;28;96685;-27
2023/07/10 06:35:34;;;;;;;4.43;1.02;;;;;;;20.88;70.76;102211.66;4995843;28;96805;-31
2023/07/10 06:38:00;;;;;;;1.75;0.80;;;;;;;21.03;70.37;102220.50;4994165;28;99904;-28
2023/07/10 06:40:25;;;;;;;5.85;1.15;;;;;;;21.09;70.08;102224.59;4994268;28;97274;-27
2023/07/10 06:42:51;;;;;;;4.28;0.90;;;;;;;21.11;69.85;102215.19;4993789;28;97055;-28
2023/07/10 06:45:17;;;;;;;2.67;1.00;;;;;;;21.19;69.45;102215.44;4994622;28;96979;-28
2023/07/10 06:47:45;;;;;;;5.05;1.00;;;;;;;21.21;69.06;102218.03;4992385;28;101373;-28
2023/07/10 06:50:13;;;;;;;1.17;0.63;;;;;;;21.32;68.95;102217.16;4992501;28;100697;-28
2023/07/10 06:52:40;;;;;;;2.72;0.85;;;;;;;21.38;67.51;102231.28;4994915;28;97079;-27
2023/07/10 06:55:07;;;;;;;6.40;1.10;;;;;;;21.41;67.82;102224.66;4995185;28;96822;-28
2023/07/10 06:57:33;;;;;;;1.77;0.77;;;;;;;21.57;67.76;102244.41;4995075;28;100573;-27
2023/07/10 06:59:59;;;;;;;3.38;1.35;;;;;;;21.62;67.06;102228.31;4995203;28;101424;-27
2023/07/10 07:02:24;;;;;;;5.38;0.85;;;;;;;21.70;66.67;102229.53;4996584;28;96581;-27
2023/07/10 07:04:49;;;;;;;2.47;0.80;;;;;;;21.73;65.33;102230.13;4996821;28;96753;-28
2023/07/10 07:07:15;;;;;;;2.80;0.80;;;;;;;21.84;65.76;102229.22;4996000;28;98035;-28
2023/07/10 07:09:40;;;;;;;4.00;0.93;;;;;;;21.99;65.62;102222.34;4995841;28;98731;-27
2023/07/10 07:12:06;;;;;;;2.72;0.70;;;;;;;22.15;65.53;102238.41;4996374;28;96504;-27
2023/07/10 07:14:32;;;;;;;2.00;0.80;;;;;;;22.27;64.79;102231.84;4995008;28;96914;-27
2023/07/10 07:16:57;;;;;;;4.43;0.73;;;;;;;22.40;65.35;102227.97;4996171;28;97916;-27
2023/07/10 07:19:22;;;;;;;4.07;0.90;;;;;;;22.45;64.16;102231.19;4996289;28;97358;-27
2023/07/10 07:21:48;;;;;;;5.10;0.77;;;;;;;22.52;64.13;102235.13;4996593;28;96672;-28
2023/07/10 07:24:13;;;;;;;4.43;0.90;;;;;;;22.71;64.21;102236.25;4996763;28;96854;-27
2023/07/10 07:26:38;;;;;;;5.18;0.90;;;;;;;22.77;63.12;102228.28;4996130;28;97941;-28
2023/07/10 07:29:04;;;;;;;2.97;0.63;;;;;;;22.79;61.92;102233.66;4995981;28;97492;-27
2023/07/10 07:31:29;;;;;;;3.05;0.85;;;;;;;22.85;61.80;102233.94;4995870;28;96477;-28
2023/07/10 07:33:55;;;;;;;4.13;1.08;;;;;;;22.95;61.35;102225.69;4996399;28;96752;-28
2023/07/10 07:36:21;;;;;;;5.65;0.80;;;;;;;23.04;59.68;102232.28;4995832;28;98405;-30
2023/07/10 07:38:46;;;;;;;5.18;0.73;;;;;;;23.05;60.09;102218.34;4995803;28;97424;-27
2023/07/10 07:41:13;;;;;;;4.90;0.77;;;;;;;23.29;60.89;102230.88;4995573;28;96654;-28
2023/07/10 07:43:38;;;;;;;5.38;0.77;;;;;;;23.40;59.62;102229.88;4994474;28;96705;-27
2023/07/10 07:46:03;;;;;;;6.30;1.02;;;;;;;23.32;59.60;102214.88;4995780;28;98014;-27
2023/07/10 07:48:29;;;;;;;2.40;0.52;;;;;;;23.45;58.27;102220.09;4995936;28;97850;-27
2023/07/10 07:51:02;;;;;;;3.60;0.93;;;;;;;23.52;58.37;102220.41;4996068;28;96507;-27
2023/07/10 07:53:30;;;;;;;5.80;0.93;;;;;;;23.68;58.45;102220.69;4995807;28;96676;-27
2023/07/10 07:55:55;;;;;;;3.05;0.80;;;;;;;23.79;57.93;102227.09;4993637;28;101154;-27
2023/07/10 07:58:21;;;;;;;1.48;0.70;;;;;;;23.85;56.92;102226.53;4995406;28;98925;-29
2023/07/10 08:00:46;;;;;;;3.75;1.00;;;;;;;23.84;57.36;102239.50;4995623;28;96691;-27
2023/07/10 08:03:11;;;;;;;1.27;0.55;;;;;;;23.95;56.38;102230.16;4995902;28;96800;-28
2023/07/10 08:05:37;;;;;;;1.27;0.65;;;;;;;23.99;56.94;102227.97;4995558;28;98085;-27
2023/07/10 08:08:05;;;;;;;4.90;0.85;;;;;;;24.16;57.01;102243.81;4995283;28;97749;-28
2023/07/10 08:10:42;;;;;;;1.13;0.52;;;;;;;23.97;55.00;102225.34;4994199;28;96516;-28
2023/07/10 08:13:10;;;;;;;1.60;0.63;;;;;;;24.06;56.82;102229.13;4994490;28;96737;-27
2023/07/10 08:15:36;;;;;;;2.08;0.68;;;;;;;24.04;57.21;102220.09;4993763;28;101724;-28
2023/07/10 08:18:02;;;;;;;3.78;1.02;;;;;;;24.24;55.91;102220.91;4995238;28;96981;-27
2023/07/10 08:20:27;;;;;;;2.63;1.05;;;;;;;24.39;55.85;102219.41;4994974;28;96812;-27
2023/07/10 08:22:53;;;;;;;1.40;0.70;;;;;;;24.44;55.62;102227.25;4993992;28;96844;-28
2023/07/10 08:25:18;;;;;;;2.60;1.08;;;;;;;24.41;54.92;102236.75;4994968;28;98581;-27
2023/07/10 08:27:45;;;;;;;4.32;0.95;;;;;;;24.39;54.14;102230.47;4994956;28;99159;-28
2023/07/10 08:30:11;;;;;;;3.03;1.05;;;;;;;24.62;54.42;102235.66;4995433;28;96528;-27
2023/07/10 08:32:37;;;;;;;4.30;0.90;;;;;;;24.72;55.08;102233.72;4993878;28;96924;-27
2023/07/10 08:35:03;;;;;;;3.20;1.00;;;;;;;24.84;54.54;102228.81;4993161;28;100875;-27
2023/07/10 08:37:29;;;;;;;2.72;1.13;;;;;;;24.63;55.09;102227.19;4993694;28;100850;-27
2023/07/10 08:39:57;;;;;;;2.72;0.90;;;;;;;24.55;53.91;102232.63;4995385;28;96583;-27
2023/07/10 08:42:28;;;;;;;6.97;0.98;;;;;;;24.58;53.96;102233.19;4995165;28;96793;-27
2023/07/10 08:44:55;;;;;;;6.05;1.33;;;;;;;24.61;55.34;102245.88;4992989;28;101015;-27
2023/07/10 08:47:30;;;;;;;3.35;1.08;;;;;;;24.74;54.07;102245.50;4992886;28;101177;-27
2023/07/10 08:50:25;;;;;;;5.25;0.95;;;;;;;24.94;52.91;102241.63;4993760;28;96657;-27
2023/07/10 08:53:06;;;;;;;3.35;0.68;;;;;;;25.16;53.46;102247.75;4990160;28;96904;-28
2023/07/10 08:56:03;;;;;;;4.37;0.90;;;;;;;25.21;52.16;102249.06;4993307;28;101066;-27
2023/07/10 08:58:33;;;;;;;4.03;0.77;;;;;;;25.40;53.30;102242.50;4993294;28;98313;-27
2023/07/10 09:01:04;;;;;;;1.65;0.75;;;;;;;25.41;52.66;102244.25;4993603;28;96787;-27
2023/07/10 09:03:44;;;;;;;6.00;1.10;;;;;;;25.22;52.96;102241.63;4993597;28;97023;-27
2023/07/10 09:06:25;;;;;;;3.45;1.05;;;;;;;25.36;52.11;102249.41;4993285;28;100844;-28
2023/07/10 09:08:53;;;;;;;2.25;0.68;;;;;;;25.58;52.44;102252.75;4993071;28;100957;-27
2023/07/10 09:11:19;;;;;;;7.10;1.08;;;;;;;25.59;52.90;102241.47;4992912;28;96730;-27
2023/07/10 09:14:10;;;;;;;3.55;0.77;;;;;;;25.77;51.60;102240.59;4994544;28;97019;-28
2023/07/10 09:16:35;;;;;;;5.17;0.97;;;;;;;25.95;52.23;102249.78;4991604;28;101655;-28
2023/07/10 09:19:06;;;;;;;1.90;0.73;;;;;;;26.02;51.81;102252.78;4994347;28;97310;-29
2023/07/10 09:21:34;;;;;;;2.65;0.73;;;;;;;26.09;52.09;102241.91;4993317;28;96484;-27
2023/07/10 09:24:04;;;;;;;3.25;0.65;;;;;;;26.31;50.85;102234.94;4994502;28;96730;-27
2023/07/10 09:26:38;;;;;;;2.80;0.88;;;;;;;26.41;50.01;102247.69;4992902;28;101782;-27
2023/07/10 09:29:10;;;;;;;4.47;0.90;;;;;;;26.35;49.35;102241.91;4994496;28;99301;-27
2023/07/10 09:32:02;;;;;;;4.07;0.80;;;;;;;26.49;49.79;102232.97;4993034;28;96704;-27
2023/07/10 09:34:31;;;;;;;2.70;0.75;;;;;;;26.17;49.98;102228.97;4993203;28;96741;-27
2023/07/10 09:36:58;;;;;;;6.15;1.25;;;;;;;25.79;51.27;102236.63;4991996;28;99803;-27
2023/07/10 09:39:28;;;;;;;7.68;0.90;;;;;;;25.53;51.67;102242.13;4992605;28;101061;-30
2023/07/10 09:41:57;;;;;;;3.03;0.52;;;;;;;25.71;51.65;102236.53;4994429;28;96750;-27
2023/07/10 09:44:23;;;;;;;2.63;0.82;;;;;;;25.67;51.26;102239.78;4992652;28;96887;-27
2023/07/10 09:46:49;;;;;;;8.32;0.80;;;;;;;25.67;51.54;102234.25;4993556;28;99330;-27
2023/07/10 09:49:19;;;;;;;4.60;0.80;;;;;;;25.77;51.00;102240.59;4994210;28;97898;-27
2023/07/10 09:51:58;;;;;;;2.88;0.90;;;;;;;25.67;51.68;102249.03;4992920;28;96595;-27
2023/07/10 09:54:24;;;;;;;4.60;0.80;;;;;;;25.55;51.19;102240.06;4993135;28;96943;-27
2023/07/10 09:56:53;;;;;;;4.63;0.77;;;;;;;25.39;50.65;102248.22;4992387;28;101144;-27
2023/07/10 09:59:22;;;;;;;4.30;1.10;;;;;;;25.11;52.12;102248.22;4993759;28;99202;-27
2023/07/10 10:01:53;;;;;;;3.65;0.75;;;;;;;25.37;50.95;102240.03;4992241;28;96738;-28
2023/07/10 10:04:27;;;;;;;2.38;0.65;;;;;;;25.70;49.87;102237.59;4994891;28;96770;-27
2023/07/10 10:07:05;;;;;;;2.75;0.65;;;;;;;25.85;49.57;102235.97;4979196;28;101447;-27
2023/07/10 10:09:31;;;;;;;5.18;1.10;;;;;;;26.15;48.92;102231.03;4997381;28;97345;-27
2023/07/10 10:12:27;;;;;;;1.85;0.63;;;;;;;26.45;48.36;102239.88;4996107;28;96570;-27
2023/07/10 10:14:58;;;;;;;4.28;0.82;;;;;;;26.57;46.15;102240.50;4995537;28;96988;-27
2023/07/10 10:17:25;;;;;;;5.43;0.85;;;;;;;26.81;47.74;102235.03;4995485;28;100741;-27
2023/07/10 10:19:57;;;;;;;4.18;1.25;;;;;;;26.79;47.34;102233.47;4995994;28;101178;-27
2023/07/10 10:22:26;;;;;;;;;;;;;;;26.82;47.39;102247.94;4996407;28;96618;-27
2023/07/10 10:24:52;;;;;;;4.35;0.80;;;;;;;26.95;47.41;102239.09;4997305;28;96589;-27
2023/07/10 10:27:26;;;;;;;2.58;0.65;;;;;;;27.10;47.07;102242.09;4996149;28;106636;-27
2023/07/10 10:30:04;;;;;;;4.07;0.80;;;;;;;27.08;46.86;102242.28;4996730;28;100445;-28
2023/07/10 10:33:08;;;;;;;4.15;0.68;;;;;;;27.04;46.76;102249.22;4995983;28;96550;-27
2023/07/10 10:35:48;;;;;;;3.42;1.00;;;;;;;26.47;46.95;102260.03;4994329;28;96838;-28
2023/07/10 10:38:27;;;;;;;5.60;0.98;;;;;;;26.64;46.75;102253.56;4996288;28;97751;-27
2023/07/10 10:41:05;;;;;;;2.90;0.70;;;;;;;27.03;46.32;102249.38;4996848;28;98053;-28
2023/07/10 10:43:33;;;;;;;3.35;0.88;;;;;;;27.31;46.38;102250.88;4995152;28;96744;-27
2023/07/10 10:46:33;;;;;;;5.07;1.50;;;;;;;27.46;46.23;102248.31;4997511;28;96884;-27
2023/07/10 10:49:21;;;;;;;3.80;0.88;;;;;;;27.17;46.69;102253.44;4992525;28;101432;-28
2023/07/10 10:52:10;;;;;;;3.70;0.88;;;;;;;26.80;47.21;102254.69;4993171;28;101312;-28
2023/07/10 10:54:55;;;;;;;1.92;0.85;;;;;;;26.58;49.12;102259.81;4994195;28;96638;-27
2023/07/10 10:57:41;;;;;;;2.60;0.70;;;;;;;26.83;48.46;102258.00;4994930;28;96836;-27
2023/07/10 11:00:27;;;;;;;1.63;0.63;;;;;;;27.06;46.76;102243.50;4994332;28;100953;-28
2023/07/10 11:03:25;;;;;;;3.33;1.05;;;;;;;27.18;46.45;102238.50;4992735;28;101054;-31
2023/07/10 11:05:54;;;;;;;4.20;0.80;;;;;;;27.29;46.85;102229.81;4992876;28;97045;-28
2023/07/10 11:08:29;;;;;;;5.60;0.70;;;;;;;27.16;47.74;102232.22;4992600;28;96873;-27
2023/07/10 11:10:56;;;;;;;8.02;1.05;;;;;;;27.45;47.37;102240.13;4993964;28;98099;-28
2023/07/10 11:13:35;;;;;;;7.35;1.00;;;;;;;27.58;45.30;102229.38;4992353;28;100957;-31
2023/07/10 11:16:02;;;;;;;5.13;1.10;;;;;;;27.73;46.04;102238.75;4991663;28;96725;-28
2023/07/10 11:18:29;;;;;;;4.55;1.10;;;;;;;27.70;45.93;102227.97;4994842;28;96896;-27
2023/07/10 11:20:56;;;;;;;6.25;1.25;;;;;;;27.87;44.92;102228.00;4994120;28;101174;-27
2023/07/10 11:23:33;;;;;;;2.88;0.95;;;;;;;27.86;44.08;102237.38;4995845;28;98751;-26
2023/07/10 11:26:02;;;;;;;2.33;0.70;;;;;;;27.98;45.03;102232.34;4994813;28;96810;-27
2023/07/10 11:28:30;;;;;;;1.90;0.77;;;;;;;27.80;45.28;102230.59;4994923;28;96875;-26
2023/07/10 11:31:20;;;;;;;2.25;0.90;;;;;;;27.68;45.32;102224.50;4994478;28;101429;-27
2023/07/10 11:33:59;;;;;;;3.92;0.90;;;;;;;27.50;44.90;102216.28;4996131;28;97785;-26
2023/07/10 11:36:24;;;;;;;1.50;0.70;;;;;;;27.37;46.35;102221.50;4994687;28;96851;-26
2023/07/10 11:39:05;;;;;;;3.30;0.83;;;;;;;27.33;45.13;102225.66;4996602;28;96848;-27
2023/07/10 11:41:58;;;;;;;3.78;0.95;;;;;;;27.23;45.59;102216.63;4994439;28;101092;-27
2023/07/10 11:44:32;;;;;;;2.35;0.90;;;;;;;26.79;46.73;102227.91;4995230;28;98909;-27
2023/07/10 11:47:01;;;;;;;2.53;0.80;;;;;;;27.01;46.63;102221.75;4994967;28;96832;-28
2023/07/10 11:49:35;;;;;;;4.10;0.85;;;;;;;27.35;46.61;102215.25;4995938;28;96674;-26
2023/07/10 11:52:15;;;;;;;4.57;1.38;;;;;;;27.69;46.01;102208.66;4995842;28;97462;-27
2023/07/10 11:54:48;;;;;;;3.03;0.82;;;;;;;27.82;45.03;102206.22;4995705;28;97879;-27
2023/07/10 11:57:27;;;;;;;3.30;0.98;;;;;;;27.94;45.24;102210.41;4994383;28;96563;-26
2023/07/10 12:00:14;;;;;;;2.65;1.05;;;;;;;27.98;45.01;102216.47;4994539;28;96742;-26
2023/07/10 12:02:45;;;;;;;1.30;0.50;;;;;;;27.67;44.41;102213.50;4995725;28;97444;-27
2023/07/10 12:05:10;;;;;;;;;;;;;;;27.73;45.86;102210.91;4994977;28;100960;-26
2023/07/10 12:07:36;;;;;;;3.80;1.10;;;;;;;27.90;45.14;102203.44;4995763;28;97530;-27
2023/07/10 12:10:01;;;;;;;2.78;0.80;;;;;;;27.60;45.57;102205.00;4995562;28;96931;-26
2023/07/10 12:12:31;;;;;;;1.58;0.60;;;;;;;27.64;44.69;102208.31;4994754;28;99266;-27
2023/07/10 12:14:59;;;;;;;3.72;0.50;;;;;;;27.42;44.72;102202.38;4993744;28;100986;-27
2023/07/10 12:17:27;;;;;;;2.60;0.55;;;;;;;27.61;45.13;102208.66;4994062;28;96681;-27
2023/07/10 12:19:53;;;;;;;3.20;0.98;;;;;;;27.78;45.21;102213.16;4994381;28;96823;-27
2023/07/10 12:22:24;;;;;;;3.20;0.80;;;;;;;27.66;45.32;102201.50;4993475;28;100589;-27
2023/07/10 12:24:52;;;;;;;2.15;0.82;;;;;;;27.62;44.36;102197.31;4993581;28;100879;-27
2023/07/10 12:27:18;;;;;;;3.00;0.82;;;;;;;27.34;45.52;102205.16;4995353;28;96521;-27
2023/07/10 12:29:52;;;;;;;3.67;1.00;;;;;;;27.18;45.20;102200.41;4994398;28;96907;-26
2023/07/10 12:32:19;;;;;;;2.05;0.93;;;;;;;27.14;45.04;102189.78;4993616;28;101403;-26
2023/07/10 12:34:45;;;;;;;3.50;1.00;;;;;;;26.98;45.12;102190.59;4993265;28;99040;-27
2023/07/10 12:37:13;;;;;;;7.82;1.10;;;;;;;26.74;46.87;102185.84;4993395;28;96680;-26
2023/07/10 12:39:39;;;;;;;2.22;0.73;;;;;;;26.86;46.57;102187.25;4993867;28;96840;-26
2023/07/10 12:42:22;;;;;;;4.32;0.82;;;;;;;26.60;45.85;102182.69;4994907;28;96803;-27
2023/07/10 12:44:47;;;;;;;4.30;0.70;;;;;;;26.41;47.20;102189.34;4994782;28;97437;-26
2023/07/10 12:47:14;;;;;;;5.40;0.85;;;;;;;26.46;46.91;102191.63;4994242;28;98397;-26
2023/07/10 12:49:49;;;;;;;2.70;0.80;;;;;;;26.37;46.08;102187.06;4993705;28;96838;-27
2023/07/10 12:52:16;;;;;;;5.93;1.15;;;;;;;26.51;47.12;102192.00;4993438;28;101082;-27
2023/07/10 12:54:46;;;;;;;2.90;0.55;;;;;;;26.91;45.77;102190.44;4995145;28;97971;-27
2023/07/10 12:57:16;;;;;;;5.05;0.75;;;;;;;27.22;45.48;102187.94;4993565;28;96591;-27
2023/07/10 12:59:42;;;;;;;4.63;1.00;;;;;;;27.52;45.85;102193.84;4994884;28;96661;-26
2023/07/10 13:02:21;;;;;;;3.47;1.08;;;;;;;27.35;44.58;102190.19;4992748;28;101098;-27
2023/07/10 13:04:55;;;;;;;3.50;1.10;;;;;;;27.11;44.51;102191.88;4994357;28;97944;-26
2023/07/10 13:07:22;;;;;;;4.07;1.20;;;;;;;27.07;45.52;102184.88;4993573;28;96714;-26
2023/07/10 13:10:00;;;;;;;3.47;1.30;;;;;;;27.20;45.02;102184.44;4993430;28;96910;-27
2023/07/10 13:12:31;;;;;;;2.22;0.68;;;;;;;27.34;45.35;102174.56;4993117;28;101024;-26
2023/07/10 13:14:59;;;;;;;5.53;1.00;;;;;;;27.63;45.11;102192.66;4993075;28;101026;-28
2023/07/10 13:17:27;;;;;;;2.92;0.70;;;;;;;27.73;44.85;102188.63;4993195;28;96635;-26
2023/07/10 13:19:54;;;;;;;3.25;0.90;;;;;;;27.39;44.99;102171.22;4993760;28;96939;-26
2023/07/10 13:22:20;;;;;;;5.15;0.98;;;;;;;27.43;45.43;102183.75;4992966;28;100909;-27
2023/07/10 13:24:45;;;;;;;1.58;0.73;;;;;;;27.67;45.07;102174.53;4994299;28;97850;-26
2023/07/10 13:27:18;;;;;;;3.45;0.90;;;;;;;27.76;44.74;102170.69;4994066;28;96573;-27
2023/07/10 13:29:43;;;;;;;2.10;1.13;;;;;;;27.63;44.46;102167.59;4993244;28;96922;-27
2023/07/10 13:32:18;;;;;;;3.47;0.80;;;;;;;27.24;44.64;102160.78;4994376;28;97477;-27
2023/07/10 13:34:43;;;;;;;2.28;1.08;;;;;;;27.39;45.13;102162.88;4994003;28;98026;-27
2023/07/10 13:37:29;;;;;;;3.30;1.25;;;;;;;27.46;43.42;102164.81;4994381;28;96700;-26
2023/07/10 13:39:54;;;;;;;3.33;1.10;;;;;;;27.35;43.79;102151.22;4996104;28;96908;-27
2023/07/10 13:42:20;;;;;;;1.88;0.60;;;;;;;27.52;44.80;102155.75;4997585;28;99674;-28
2023/07/10 13:44:46;;;;;;;2.85;0.65;;;;;;;27.68;44.91;102156.81;4997396;28;99399;-27
2023/07/10 13:47:14;;;;;;;2.63;1.08;;;;;;;27.69;43.54;102152.97;4995994;28;96890;-27
2023/07/10 13:49:40;;;;;;;1.60;0.70;;;;;;;27.62;42.46;102146.34;4996402;28;96769;-27
2023/07/10 13:52:12;;;;;;;2.40;1.02;;;;;;;27.59;42.51;102142.00;4995745;28;101042;-28
2023/07/10 13:54:38;;;;;;;2.92;0.82;;;;;;;27.70;44.92;102143.56;4997707;28;97376;-27
2023/07/10 13:57:13;;;;;;;3.35;0.70;;;;;;;27.79;43.47;102136.91;4997609;28;96516;-27
2023/07/10 13:59:38;;;;;;;3.10;1.00;;;;;;;27.86;43.87;102139.91;4998292;28;96545;-27
2023/07/10 14:02:27;;;;;;;2.75;0.80;;;;;;;27.89;42.64;102143.22;4997481;28;98493;-27
2023/07/10 14:04:55;;;;;;;2.90;1.23;;;;;;;27.88;42.95;102138.69;4995958;28;100684;-27
2023/07/10 14:07:22;;;;;;;6.03;1.00;;;;;;;27.69;43.57;102131.53;4997669;28;96613;-27
2023/07/10 14:09:48;;;;;;;2.70;0.82;;;;;;;27.66;44.02;102136.63;4996535;28;96889;-26
2023/07/10 14:12:14;;;;;;;3.08;0.80;;;;;;;27.73;43.49;102137.66;4997048;28;98459;-26
2023/07/10 14:14:39;;;;;;;5.22;0.98;;;;;;;27.66;43.72;102119.91;4995366;28;100854;-27
2023/07/10 14:17:17;;;;;;;4.05;0.95;;;;;;;27.69;43.29;102119.53;4997097;28;96508;-27
2023/07/10 14:19:42;;;;;;;3.10;0.80;;;;;;;27.69;43.54;102114.84;4997365;28;96684;-26
2023/07/10 14:22:14;;;;;;;1.75;0.82;;;;;;;27.66;43.99;102114.34;4997171;28;97490;-27
2023/07/10 14:24:39;;;;;;;1.98;0.73;;;;;;;27.57;43.64;102109.81;4997136;28;97387;-27
2023/07/10 14:27:18;;;;;;;3.30;0.98;;;;;;;27.57;42.75;102124.59;4997344;28;96486;-27
2023/07/10 14:29:44;;;;;;;2.15;0.90;;;;;;;27.57;43.76;102123.75;4997551;28;96629;-27
2023/07/10 14:32:26;;;;;;;2.50;0.80;;;;;;;27.44;43.00;102127.94;4996636;28;99614;-26
2023/07/10 14:34:51;;;;;;;3.50;0.90;;;;;;;27.34;43.84;102118.91;4995421;28;102258;-27
2023/07/10 14:37:18;;;;;;;3.72;0.80;;;;;;;27.48;43.57;102128.44;4995742;28;96835;-27
2023/07/10 14:39:45;;;;;;;3.22;0.75;;;;;;;27.47;43.13;102116.44;4997046;28;96794;-26
2023/07/10 14:42:19;;;;;;;1.10;0.68;;;;;;;27.49;43.64;102128.28;4994780;28;101050;-27
2023/07/10 14:44:45;;;;;;;5.00;0.90;;;;;;;27.46;43.56;102114.72;4996343;28;99640;-26
2023/07/10 14:47:35;;;;;;;2.85;0.75;;;;;;;27.44;43.26;102122.38;4995169;28;96712;-27
2023/07/10 14:50:03;;;;;;;2.30;0.93;;;;;;;27.32;42.04;102112.63;4995061;28;96742;-26
2023/07/10 14:52:31;;;;;;;2.45;0.90;;;;;;;27.23;43.33;102102.53;4994438;28;101498;-27
2023/07/10 14:54:59;;;;;;;4.88;1.15;;;;;;;27.19;43.32;102101.09;4995226;28;100551;-28
2023/07/10 14:57:36;;;;;;;4.78;1.10;;;;;;;27.10;43.64;102098.34;4995285;28;96618;-27
2023/07/10 15:00:22;;;;;;;4.72;1.05;;;;;;;26.97;42.63;102074.84;4997220;28;96831;-26
2023/07/10 15:02:48;;;;;;;2.80;0.90;;;;;;;27.04;43.29;102092.59;4996438;28;98080;-27
2023/07/10 15:05:14;;;;;;;2.55;0.70;;;;;;;27.05;43.69;102091.53;4994991;28;100918;-27
2023/07/10 15:07:41;;;;;;;2.30;1.05;;;;;;;27.00;44.17;102097.59;4996220;28;96462;-26
2023/07/10 15:10:19;;;;;;;0.90;0.73;;;;;;;26.85;42.82;102082.66;4995320;28;96927;-26
2023/07/10 15:12:45;;;;;;;3.70;0.90;;;;;;;26.89;44.22;102079.34;4994944;28;101283;-26
2023/07/10 15:15:15;;;;;;;3.95;0.82;;;;;;;26.95;43.65;102085.28;4996117;28;97731;-26
2023/07/10 15:17:41;;;;;;;3.00;0.90;;;;;;;26.89;43.53;102081.28;4995204;28;96638;-27
2023/07/10 15:20:33;;;;;;;2.13;0.85;;;;;;;26.78;42.79;102068.56;4995111;28;96879;-26
2023/07/10 15:22:58;;;;;;;2.85;1.00;;;;;;;26.78;43.46;102071.34;4995749;28;98177;-26
2023/07/10 15:25:25;;;;;;;2.70;1.00;;;;;;;26.64;43.42;102070.09;4996280;28;99173;-28
2023/07/10 15:27:51;;;;;;;2.20;0.70;;;;;;;26.65;44.06;102062.66;4994888;28;96503;-27
2023/07/10 15:30:20;;;;;;;2.65;0.95;;;;;;;26.65;43.43;102062.66;4995012;28;96849;-26
2023/07/10 15:32:47;;;;;;;1.80;0.93;;;;;;;26.70;43.30;102060.22;4994070;28;101216;-26
2023/07/10 15:35:16;;;;;;;1.52;0.80;;;;;;;26.64;41.04;102066.44;4994138;28;101776;-26
2023/07/10 15:37:42;;;;;;;1.63;0.60;;;;;;;26.42;43.38;102054.03;4994714;28;96713;-27
2023/07/10 15:40:29;;;;;;;1.98;0.85;;;;;;;26.40;43.34;102050.56;4994395;28;96908;-26
2023/07/10 15:42:57;;;;;;;3.97;1.10;;;;;;;26.25;43.67;102034.53;4995377;28;99458;-29
2023/07/10 15:45:23;;;;;;;2.92;1.00;;;;;;;26.26;42.79;102044.59;4994352;28;100764;-28
2023/07/10 15:47:51;;;;;;;6.68;0.60;;;;;;;26.24;43.46;102055.03;4994321;28;96899;-27
2023/07/10 15:50:17;;;;;;;2.75;1.00;;;;;;;26.33;44.20;102049.50;4994946;28;96838;-27
2023/07/10 15:52:49;;;;;;;1.67;0.65;;;;;;;26.37;43.76;102043.44;4982440;28;99691;-27
2023/07/10 15:55:34;;;;;;;5.72;1.00;;;;;;;26.40;42.49;102037.53;4974429;28;100969;-27
2023/07/10 15:58:00;;;;;;;5.07;0.70;;;;;;;26.29;43.52;102032.31;4975329;28;96683;-31
2023/07/10 16:00:37;;;;;;;2.67;0.65;;;;;;;26.30;42.55;102027.63;4974553;28;97017;-27
2023/07/10 16:03:12;;;;;;;1.98;0.82;;;;;;;26.33;43.00;102028.13;4973492;28;101252;-26
2023/07/10 16:05:38;;;;;;;3.75;1.08;;;;;;;26.32;43.69;102022.75;4974090;28;100798;-28
2023/07/10 16:08:13;;;;;;;7.68;1.17;;;;;;;26.25;43.72;102008.69;4975907;28;97107;-26
2023/07/10 16:10:39;;;;;;;3.30;1.10;;;;;;;26.30;43.46;102011.81;4974483;28;96743;-26
2023/07/10 16:13:13;;;;;;;2.97;0.80;;;;;;;26.21;42.67;102005.34;4975421;28;98022;-27
2023/07/10 16:15:38;;;;;;;3.35;1.27;;;;;;;26.15;44.18;102011.59;4974375;28;100994;-27
2023/07/10 16:18:11;;;;;;;3.83;0.80;;;;;;;26.15;43.27;102008.81;4975848;28;96750;-27
2023/07/10 16:20:37;;;;;;;1.27;0.65;;;;;;;26.14;43.75;102012.63;4974431;28;96765;-26
2023/07/10 16:23:05;;;;;;;3.65;1.20;;;;;;;26.13;43.17;102012.81;4974937;28;97402;-26
2023/07/10 16:25:31;;;;;;;2.20;0.65;;;;;;;26.11;44.33;102012.97;4973695;28;101275;-26
2023/07/10 16:27:57;;;;;;;3.10;1.13;;;;;;;26.12;44.22;102000.81;4974173;28;96729;-26
2023/07/10 16:30:25;;;;;;;3.63;1.15;;;;;;;26.14;42.80;101995.09;4974154;28;96931;-26
2023/07/10 16:32:51;;;;;;;2.15;0.85;;;;;;;26.04;43.71;102004.44;4973718;28;101072;-26
2023/07/10 16:35:25;;;;;;;3.38;0.68;;;;;;;25.91;43.91;101986.50;4973579;28;101422;-26
2023/07/10 16:37:51;;;;;;;3.22;1.15;;;;;;;26.03;44.41;101988.81;4974101;28;96637;-27
2023/07/10 16:40:20;;;;;;;2.28;0.70;;;;;;;26.05;44.27;101989.53;4974271;28;96929;-26
2023/07/10 16:42:46;;;;;;;2.13;1.00;;;;;;;25.97;44.06;101999.72;4973540;28;100907;-26
2023/07/10 16:45:26;;;;;;;2.30;0.85;;;;;;;25.85;42.79;101985.25;4974125;28;96570;-27
2023/07/10 16:47:52;;;;;;;1.10;0.82;;;;;;;25.89;44.19;101996.94;4972629;28;98132;-27
2023/07/10 16:50:19;;;;;;;2.95;1.00;;;;;;;25.94;43.89;101991.72;4975018;28;96834;-27
2023/07/10 16:52:45;;;;;;;4.00;0.88;;;;;;;25.89;42.85;101991.38;4973485;28;101057;-26
2023/07/10 16:55:23;;;;;;;3.13;1.15;;;;;;;25.84;43.31;101994.63;4973399;28;100811;-26
2023/07/10 16:57:51;;;;;;;3.13;1.00;;;;;;;25.81;43.69;101993.03;4973765;28;96635;-26
2023/07/10 17:00:19;;;;;;;4.93;1.05;;;;;;;25.75;43.87;101984.50;4973721;28;96820;-26
2023/07/10 17:02:53;;;;;;;2.97;0.98;;;;;;;25.73;44.52;101976.34;4973352;28;100493;-27
2023/07/10 17:05:18;;;;;;;1.25;0.85;;;;;;;25.76;44.86;101983.47;4973561;28;100812;-26
2023/07/10 17:07:44;;;;;;;2.63;0.93;;;;;;;25.72;45.22;101985.72;4973370;28;96794;-26
2023/07/10 17:10:11;;;;;;;1.73;0.75;;;;;;;25.80;44.92;101987.66;4975179;28;96805;-27
2023/07/10 17:12:37;;;;;;;3.80;0.90;;;;;;;25.79;45.51;101977.56;4972830;28;101015;-26
2023/07/10 17:15:04;;;;;;;4.35;0.90;;;;;;;25.83;44.93;101981.75;4972201;28;100835;-26
2023/07/10 17:17:29;;;;;;;3.45;1.35;;;;;;;25.79;45.70;101975.69;4973435;28;96651;-27
2023/07/10 17:19:55;;;;;;;2.90;1.17;;;;;;;25.83;45.17;101971.50;4974825;28;96831;-27
2023/07/10 17:22:28;;;;;;;2.00;1.15;;;;;;;25.88;45.38;101981.28;4974630;28;97852;-26
2023/07/10 17:24:55;;;;;;;5.28;1.20;;;;;;;25.89;45.75;101981.13;4972993;28;100981;-26